createdAt,value
2023-04-13T00:01:11.345Z,0.80
2023-04-13T00:03:41.781Z,0.90
2023-04-13T00:06:11.587Z,1.03
2023-04-13T00:08:42.995Z,1.00
2023-04-13T00:11:12.482Z,0.77
2023-04-13T00:13:43.099Z,0.90
2023-04-13T00:16:13.915Z,0.73
2023-04-13T00:18:43.998Z,0.97
2023-04-13T00:21:12.714Z,1.00
2023-04-13T00:23:41.358Z,1.13
2023-04-13T00:26:09.944Z,0.90
2023-04-13T00:28:38.600Z,1.20
2023-04-13T00:31:08.111Z,1.20
2023-04-13T00:33:36.822Z,1.37
2023-04-13T00:36:08.085Z,1.10
2023-04-13T00:38:37.096Z,1.10
2023-04-13T00:41:06.327Z,1.03
2023-04-13T00:43:35.013Z,1.13
2023-04-13T00:46:03.808Z,1.00
2023-04-13T00:48:32.701Z,0.80
2023-04-13T00:51:01.318Z,1.30
2023-04-13T00:53:33.594Z,1.03
2023-04-13T00:56:04.059Z,1.03
2023-04-13T00:58:32.880Z,1.03
2023-04-13T01:01:01.495Z,1.20
2023-04-13T01:03:30.434Z,1.10
2023-04-13T01:06:18.191Z,1.40
2023-04-13T01:08:54.343Z,1.13
2023-04-13T01:11:29.594Z,1.20
2023-04-13T01:14:08.960Z,1.10
2023-04-13T01:16:45.840Z,1.00
2023-04-13T01:19:24.342Z,1.00
2023-04-13T01:21:54.781Z,0.97
2023-04-13T01:24:36.814Z,1.07
2023-04-13T01:27:13.141Z,1.03
2023-04-13T01:29:45.376Z,0.80
2023-04-13T01:32:16.386Z,1.13
2023-04-13T01:34:46.460Z,1.00
2023-04-13T01:37:17.441Z,1.00
2023-04-13T01:39:49.382Z,0.73
2023-04-13T01:42:34.881Z,0.80
2023-04-13T01:45:06.401Z,1.10
2023-04-13T01:47:38.455Z,1.17
2023-04-13T01:50:31.129Z,1.00
2023-04-13T01:53:16.396Z,1.20
2023-04-13T01:55:46.807Z,1.10
2023-04-13T01:58:17.109Z,1.00
2023-04-13T02:00:54.622Z,0.93
2023-04-13T02:03:23.776Z,1.00
2023-04-13T02:05:52.831Z,0.90
2023-04-13T02:08:21.517Z,1.13
2023-04-13T02:10:50.263Z,1.20
2023-04-13T02:13:18.878Z,1.00
2023-04-13T02:15:48.449Z,1.23
2023-04-13T02:18:18.578Z,0.73
2023-04-13T02:20:47.267Z,1.00
2023-04-13T02:23:16.007Z,1.40
2023-04-13T02:25:47.634Z,1.10
2023-04-13T02:28:17.978Z,1.07
2023-04-13T02:30:48.370Z,1.10
2023-04-13T02:33:19.301Z,1.53
2023-04-13T02:35:49.461Z,1.07
2023-04-13T02:38:19.502Z,1.03
2023-04-13T02:40:56.642Z,0.87
2023-04-13T02:43:26.521Z,1.13
2023-04-13T02:45:55.801Z,0.90
2023-04-13T02:48:29.132Z,1.20
2023-04-13T02:50:58.633Z,1.10
2023-04-13T02:53:32.353Z,0.83
2023-04-13T02:56:06.852Z,1.23
2023-04-13T02:58:36.526Z,1.03
2023-04-13T03:01:09.775Z,0.90
2023-04-13T03:03:41.884Z,1.00
2023-04-13T03:06:11.394Z,1.00
2023-04-13T03:09:01.730Z,1.20
2023-04-13T03:11:37.699Z,1.00
2023-04-13T03:14:13.255Z,0.80
2023-04-13T03:16:42.949Z,1.33
2023-04-13T03:19:14.346Z,0.90
2023-04-13T03:21:46.513Z,1.07
2023-04-13T03:24:19.695Z,1.07
2023-04-13T03:26:49.256Z,0.90
2023-04-13T03:29:24.303Z,1.20
2023-04-13T03:31:53.225Z,1.07
2023-04-13T03:34:24.057Z,1.20
2023-04-13T03:36:53.732Z,1.23
2023-04-13T03:39:23.138Z,1.13
2023-04-13T03:41:51.799Z,1.00
2023-04-13T03:44:21.344Z,1.20
2023-04-13T03:46:50.172Z,1.13
2023-04-13T03:49:37.652Z,1.30
2023-04-13T03:52:06.659Z,1.13
2023-04-13T03:54:40.890Z,1.10
2023-04-13T03:57:09.737Z,1.47
2023-04-13T03:59:38.518Z,1.20
2023-04-13T04:02:11.070Z,1.10
2023-04-13T04:04:44.170Z,1.40
2023-04-13T04:07:13.059Z,1.20
2023-04-13T04:09:43.033Z,1.20
2023-04-13T04:12:14.408Z,1.07
2023-04-13T04:14:45.454Z,0.87
2023-04-13T04:17:19.978Z,1.00
2023-04-13T04:19:50.319Z,1.10
2023-04-13T04:22:30.362Z,1.03
2023-04-13T04:25:00.409Z,1.00
2023-04-13T04:27:29.876Z,1.40
2023-04-13T04:30:05.188Z,1.57
2023-04-13T04:32:40.672Z,1.37
2023-04-13T04:35:19.362Z,1.13
2023-04-13T04:37:55.215Z,1.17
2023-04-13T04:40:25.876Z,1.63
2023-04-13T04:42:55.153Z,1.20
2023-04-13T04:45:47.227Z,1.10
2023-04-13T04:48:19.724Z,1.70
2023-04-13T04:50:52.559Z,1.23
2023-04-13T04:53:21.734Z,1.63
2023-04-13T04:55:50.574Z,1.60
2023-04-13T04:58:37.012Z,1.30
2023-04-13T05:01:06.820Z,1.20
2023-04-13T05:03:36.189Z,1.43
2023-04-13T05:06:21.407Z,1.67
2023-04-13T05:08:50.202Z,1.53
2023-04-13T05:11:20.703Z,1.50
2023-04-13T05:13:50.542Z,1.50
2023-04-13T05:16:22.977Z,1.30
2023-04-13T05:18:53.475Z,1.37
2023-04-13T05:21:51.127Z,1.23
2023-04-13T05:24:20.306Z,1.23
2023-04-13T05:26:49.627Z,1.30
2023-04-13T05:29:23.675Z,1.40
2023-04-13T05:31:52.372Z,1.47
2023-04-13T05:34:21.886Z,1.60
2023-04-13T05:37:05.416Z,1.87
2023-04-13T05:39:34.270Z,1.60
2023-04-13T05:42:03.282Z,1.80
2023-04-13T05:44:35.463Z,2.40
2023-04-13T05:47:04.608Z,1.73
2023-04-13T05:49:34.803Z,1.63
2023-04-13T05:52:07.659Z,1.70
2023-04-13T05:54:44.816Z,1.87
2023-04-13T05:57:13.637Z,1.60
2023-04-13T05:59:48.458Z,1.63
2023-04-13T06:02:22.743Z,1.60
2023-04-13T06:04:53.703Z,1.70
2023-04-13T06:07:26.145Z,1.70
2023-04-13T06:09:54.945Z,1.87
2023-04-13T06:12:24.081Z,2.10
2023-04-13T06:14:54.470Z,1.57
2023-04-13T06:17:23.111Z,2.27
2023-04-13T06:19:52.129Z,2.27
2023-04-13T06:22:20.851Z,1.60
2023-04-13T06:24:52.876Z,1.90
2023-04-13T06:27:21.752Z,2.20
2023-04-13T06:29:52.504Z,1.67
2023-04-13T06:32:21.482Z,1.90
2023-04-13T06:34:50.723Z,2.13
2023-04-13T06:37:21.086Z,1.90
2023-04-13T06:39:53.995Z,1.87
2023-04-13T06:42:22.699Z,1.90
2023-04-13T06:45:26.671Z,1.63
2023-04-13T06:47:56.354Z,1.77
2023-04-13T06:50:26.728Z,2.00
2023-04-13T06:53:00.675Z,2.10
2023-04-13T06:55:31.168Z,2.20
2023-04-13T06:58:00.562Z,1.93
2023-04-13T07:00:30.639Z,1.77
2023-04-13T07:03:02.141Z,1.63
2023-04-13T07:05:31.577Z,1.80
2023-04-13T07:08:07.377Z,1.77
2023-04-13T07:10:40.907Z,1.67
2023-04-13T07:13:17.720Z,2.00
2023-04-13T07:15:47.553Z,2.37
2023-04-13T07:18:16.591Z,1.93
2023-04-13T07:20:45.196Z,2.23
2023-04-13T07:23:15.231Z,2.20
2023-04-13T07:25:46.368Z,2.30
2023-04-13T07:28:23.211Z,2.30
2023-04-13T07:30:55.499Z,2.17
2023-04-13T07:33:24.624Z,2.10
2023-04-13T07:35:55.568Z,2.47
2023-04-13T07:38:27.367Z,1.60
2023-04-13T07:40:57.415Z,1.90
2023-04-13T07:43:29.764Z,2.00
2023-04-13T07:46:01.960Z,2.00
2023-04-13T07:48:30.737Z,2.10
2023-04-13T07:51:06.093Z,2.47
2023-04-13T07:53:34.882Z,2.37
2023-04-13T07:56:05.262Z,1.97
2023-04-13T07:58:38.428Z,2.60
2023-04-13T08:01:08.002Z,2.40
2023-04-13T08:03:37.536Z,2.40
2023-04-13T08:06:13.259Z,2.10
2023-04-13T08:08:42.482Z,2.03
2023-04-13T08:11:13.091Z,2.07
2023-04-13T08:13:43.084Z,2.20
2023-04-13T08:16:12.560Z,2.50
2023-04-13T08:18:42.903Z,2.27
2023-04-13T08:21:15.210Z,2.13
2023-04-13T08:23:46.703Z,2.43
2023-04-13T08:26:21.516Z,2.30
2023-04-13T08:28:53.074Z,2.70
2023-04-13T08:31:21.891Z,2.37
2023-04-13T08:33:57.935Z,1.67
2023-04-13T08:36:27.660Z,2.50
2023-04-13T08:39:04.184Z,2.37
2023-04-13T08:41:41.105Z,2.10
2023-04-13T08:44:10.745Z,3.10
2023-04-13T08:46:42.822Z,2.53
2023-04-13T08:49:13.178Z,2.13
2023-04-13T08:52:09.028Z,2.20
2023-04-13T08:54:39.304Z,2.43
2023-04-13T08:57:16.398Z,2.17
2023-04-13T08:59:46.111Z,2.77
2023-04-13T09:02:15.914Z,2.77
2023-04-13T09:04:56.388Z,2.73
2023-04-13T09:07:28.867Z,2.27
2023-04-13T09:10:03.196Z,2.50
2023-04-13T09:12:34.909Z,2.13
2023-04-13T09:15:07.281Z,2.33
2023-04-13T09:17:43.338Z,2.20
2023-04-13T09:20:20.474Z,2.27
2023-04-13T09:22:50.154Z,1.97
2023-04-13T09:25:23.589Z,2.37
2023-04-13T09:27:53.760Z,2.20
2023-04-13T09:30:24.086Z,2.00
2023-04-13T09:33:05.803Z,2.00
2023-04-13T09:35:35.790Z,1.77
2023-04-13T09:38:05.087Z,1.80
2023-04-13T09:40:38.318Z,1.77
2023-04-13T09:43:09.697Z,2.27
2023-04-13T09:45:40.263Z,2.63
2023-04-13T09:48:20.570Z,3.50
2023-04-13T09:51:00.611Z,2.43
2023-04-13T09:53:42.508Z,2.90
2023-04-13T09:56:11.750Z,2.60
2023-04-13T09:58:46.238Z,2.40
2023-04-13T10:01:16.272Z,2.37
2023-04-13T10:03:45.917Z,1.87
2023-04-13T10:06:15.349Z,1.97
2023-04-13T10:08:46.359Z,2.40
2023-04-13T10:11:16.348Z,2.33
2023-04-13T10:13:53.567Z,2.30
2023-04-13T10:16:59.750Z,1.63
2023-04-13T10:19:34.222Z,1.60
2023-04-13T10:22:08.925Z,1.90
2023-04-13T10:24:38.764Z,2.00
2023-04-13T10:27:16.508Z,1.83
2023-04-13T10:29:47.479Z,1.77
2023-04-13T10:32:24.514Z,1.77
2023-04-13T10:34:54.127Z,1.73
2023-04-13T10:37:24.477Z,2.20
2023-04-13T10:40:06.296Z,1.90
2023-04-13T10:45:26.206Z,2.90
2023-04-13T10:47:56.418Z,2.40
2023-04-13T10:50:28.847Z,2.20
2023-04-13T10:53:03.884Z,2.00
2023-04-13T10:55:33.225Z,2.73
2023-04-13T10:58:03.853Z,2.83
2023-04-13T11:03:06.641Z,3.30
2023-04-13T11:05:35.949Z,3.10
2023-04-13T11:08:05.213Z,2.73
2023-04-13T11:10:34.117Z,2.87
2023-04-13T11:13:02.758Z,2.00
2023-04-13T11:15:34.236Z,1.93
2023-04-13T11:18:03.728Z,2.93
2023-04-13T11:20:33.815Z,3.33
2023-04-13T11:23:06.149Z,4.27
2023-04-13T11:25:35.373Z,4.53
2023-04-13T11:28:05.591Z,5.00
2023-04-13T11:30:36.076Z,3.27
2023-04-13T11:33:04.893Z,2.67
2023-04-13T11:35:34.069Z,2.80
2023-04-13T11:38:02.766Z,2.40
2023-04-13T11:40:31.639Z,2.00
2023-04-13T11:43:01.383Z,2.00
2023-04-13T11:45:31.198Z,1.80
2023-04-13T11:48:06.129Z,1.93
2023-04-13T11:50:35.133Z,1.60
2023-04-13T11:53:04.716Z,2.07
2023-04-13T11:55:50.065Z,1.60
2023-04-13T11:58:22.977Z,2.03
2023-04-13T12:00:51.976Z,1.70
2023-04-13T12:03:38.225Z,1.90
2023-04-13T12:06:11.144Z,2.07
2023-04-13T12:08:40.595Z,6.20
2023-04-13T12:13:52.417Z,12.47
2023-04-13T12:19:14.070Z,3.93
2023-04-13T12:21:53.379Z,3.40
2023-04-13T12:24:22.136Z,2.63
2023-04-13T12:29:24.335Z,1.70
2023-04-13T12:31:53.011Z,2.10
2023-04-13T12:34:23.620Z,2.73
2023-04-13T12:36:52.396Z,2.10
2023-04-13T12:39:21.434Z,2.10
2023-04-13T12:41:50.001Z,1.93
2023-04-13T12:44:18.715Z,2.13
2023-04-13T12:46:47.493Z,2.20
2023-04-13T12:49:16.252Z,1.70
2023-04-13T12:51:46.276Z,2.27
2023-04-13T12:54:17.942Z,2.00
2023-04-13T12:56:46.685Z,1.73
2023-04-13T12:59:16.768Z,1.40
2023-04-13T13:01:45.488Z,1.77
2023-04-13T13:04:14.189Z,1.77
2023-04-13T13:06:42.889Z,1.63
2023-04-13T13:09:12.900Z,1.60
2023-04-13T13:11:42.086Z,3.07
2023-04-13T13:14:11.471Z,8.80
2023-04-13T13:16:40.215Z,2.77
2023-04-13T13:19:09.184Z,2.20
2023-04-13T13:21:37.906Z,2.20
2023-04-13T13:24:08.288Z,2.33
2023-04-13T13:27:00.330Z,1.73
2023-04-13T13:29:30.955Z,1.80
2023-04-13T13:31:59.758Z,2.30
2023-04-13T13:34:28.476Z,1.80
2023-04-13T13:36:57.100Z,1.90
2023-04-13T13:39:27.270Z,1.63
2023-04-13T13:41:58.468Z,2.10
2023-04-13T13:44:27.181Z,2.00
2023-04-13T13:46:55.919Z,1.40
2023-04-13T13:49:28.402Z,1.40
2023-04-13T13:52:06.575Z,1.40
2023-04-13T13:54:43.079Z,3.03
2023-04-13T13:57:13.116Z,3.97
2023-04-13T13:59:41.726Z,3.03
2023-04-13T14:02:10.482Z,2.10
2023-04-13T14:04:43.160Z,1.70
2023-04-13T14:07:11.936Z,1.20
2023-04-13T14:09:40.560Z,1.53
2023-04-13T14:12:09.494Z,1.50
2023-04-13T14:14:39.551Z,1.40
2023-04-13T14:17:08.369Z,1.40
2023-04-13T14:19:37.010Z,1.17
2023-04-13T14:22:05.671Z,1.10
2023-04-13T14:24:34.318Z,1.43
2023-04-13T14:27:03.068Z,1.23
2023-04-13T14:29:31.844Z,1.60
2023-04-13T14:32:01.962Z,1.80
2023-04-13T14:34:30.928Z,1.90
2023-04-13T14:36:59.639Z,1.70
2023-04-13T14:39:28.295Z,1.33
2023-04-13T14:41:57.029Z,1.60
2023-04-13T14:44:25.716Z,1.90
2023-04-13T14:46:54.401Z,1.93
2023-04-13T14:49:24.496Z,1.90
2023-04-13T14:51:53.365Z,1.50
2023-04-13T14:54:22.206Z,1.60
2023-04-13T14:56:50.988Z,1.60
2023-04-13T14:59:19.709Z,1.83
2023-04-13T15:01:48.633Z,1.50
2023-04-13T15:04:19.113Z,2.77
2023-04-13T15:06:49.551Z,3.33
2023-04-13T15:09:19.113Z,2.50
2023-04-13T15:11:47.757Z,1.90
2023-04-13T15:14:16.399Z,1.60
2023-04-13T15:16:45.152Z,1.70
2023-04-13T15:19:14.227Z,1.60
2023-04-13T15:21:42.902Z,1.43
2023-04-13T15:24:12.931Z,1.73
2023-04-13T15:26:42.977Z,1.50
2023-04-13T15:29:12.173Z,1.40
2023-04-13T15:31:40.890Z,1.80
2023-04-13T15:34:09.567Z,1.70
2023-04-13T15:36:38.385Z,1.50
2023-04-13T15:39:07.073Z,1.77
2023-04-13T15:41:37.071Z,1.87
2023-04-13T15:44:06.340Z,1.57
2023-04-13T15:46:35.142Z,1.33
2023-04-13T15:49:03.911Z,1.80
2023-04-13T15:51:33.082Z,1.90
2023-04-13T15:54:01.819Z,1.50
2023-04-13T15:56:30.520Z,1.87
2023-04-13T15:59:00.632Z,1.33
2023-04-13T16:01:29.404Z,1.23
2023-04-13T16:03:58.392Z,1.30
2023-04-13T16:06:27.561Z,1.57
2023-04-13T16:08:57.008Z,1.53
2023-04-13T16:11:28.432Z,2.17
2023-04-13T16:14:07.251Z,1.83
2023-04-13T16:16:44.520Z,1.60
2023-04-13T16:19:13.822Z,1.63
2023-04-13T16:21:43.953Z,1.53
2023-04-13T16:24:12.919Z,2.07
2023-04-13T16:26:41.612Z,2.40
2023-04-13T16:29:14.149Z,2.27
2023-04-13T16:31:45.035Z,2.30
2023-04-13T16:34:25.657Z,2.60
2023-04-13T16:36:55.133Z,3.07
2023-04-13T16:39:23.823Z,2.63
2023-04-13T16:41:52.660Z,2.53
2023-04-13T16:44:22.709Z,2.60
2023-04-13T16:46:52.091Z,2.10
2023-04-13T16:49:21.078Z,2.00
2023-04-13T16:51:49.728Z,1.90
2023-04-13T16:54:19.340Z,1.70
2023-04-13T16:56:48.213Z,1.20
2023-04-13T16:59:17.054Z,1.60
2023-04-13T17:01:47.236Z,1.50
2023-04-13T17:04:16.109Z,1.27
2023-04-13T17:06:47.883Z,1.50
2023-04-13T17:09:19.721Z,1.60
2023-04-13T17:11:48.324Z,1.27
2023-04-13T17:14:17.115Z,1.10
2023-04-13T17:16:47.260Z,1.43
2023-04-13T17:19:16.754Z,1.23
2023-04-13T17:21:45.654Z,1.40
2023-04-13T17:24:14.278Z,1.47
2023-04-13T17:26:42.954Z,1.93
2023-04-13T17:29:11.575Z,2.00
2023-04-13T17:31:40.235Z,1.80
2023-04-13T17:34:10.507Z,1.40
2023-04-13T17:36:39.162Z,1.17
2023-04-13T17:39:08.371Z,1.10
2023-04-13T17:41:37.759Z,1.07
2023-04-13T17:44:06.734Z,1.00
2023-04-13T17:46:35.422Z,0.93
2023-04-13T17:49:04.046Z,1.00
2023-04-13T17:51:34.439Z,1.10
2023-04-13T17:54:07.768Z,1.40
2023-04-13T17:56:36.734Z,1.60
2023-04-13T17:59:08.115Z,2.37
2023-04-13T18:01:37.173Z,2.60
2023-04-13T18:04:06.401Z,3.27
2023-04-13T18:06:36.853Z,3.03
2023-04-13T18:09:05.606Z,2.53
2023-04-13T18:11:34.437Z,2.80
2023-04-13T18:14:03.765Z,2.77
2023-04-13T18:16:33.120Z,2.17
2023-04-13T18:19:02.076Z,2.57
2023-04-13T18:21:32.446Z,3.23
2023-04-13T18:24:02.827Z,2.87
2023-04-13T18:26:31.856Z,3.73
2023-04-13T18:29:00.506Z,4.10
2023-04-13T18:31:29.198Z,4.00
2023-04-13T18:33:58.418Z,3.40
2023-04-13T18:36:27.789Z,3.70
2023-04-13T18:39:00.504Z,5.00
2023-04-13T18:41:31.691Z,4.70
2023-04-13T18:44:00.701Z,4.73
2023-04-13T18:46:29.670Z,5.10
2023-04-13T18:48:58.243Z,4.17
2023-04-13T18:51:28.248Z,3.17
2023-04-13T18:53:57.211Z,2.30
2023-04-13T18:56:26.870Z,1.93
2023-04-13T18:58:57.118Z,2.20
2023-04-13T19:01:25.814Z,1.93
2023-04-13T19:03:54.880Z,2.00
2023-04-13T19:06:23.813Z,2.10
2023-04-13T19:08:52.485Z,2.00
2023-04-13T19:11:22.468Z,2.00
2023-04-13T19:13:51.102Z,2.00
2023-04-13T19:16:21.703Z,2.20
2023-04-13T19:18:50.451Z,1.87
2023-04-13T19:21:23.689Z,2.03
2023-04-13T19:23:52.986Z,2.00
2023-04-13T19:26:21.599Z,2.97
2023-04-13T19:28:50.529Z,2.50
2023-04-13T19:31:20.515Z,2.67
2023-04-13T19:33:49.214Z,2.67
2023-04-13T19:36:17.870Z,2.53
2023-04-13T19:38:47.143Z,2.70
2023-04-13T19:41:15.910Z,2.60
2023-04-13T19:43:44.615Z,2.60
2023-04-13T19:46:13.290Z,3.00
2023-04-13T19:48:43.395Z,3.37
2023-04-13T19:51:12.033Z,3.37
2023-04-13T19:53:40.677Z,3.23
2023-04-13T19:56:09.316Z,2.90
2023-04-13T19:58:37.945Z,3.47
2023-04-13T20:01:07.840Z,3.20
2023-04-13T20:03:37.461Z,3.50
2023-04-13T20:06:07.823Z,3.53
2023-04-13T20:08:37.010Z,3.27
2023-04-13T20:11:05.727Z,3.63
2023-04-13T20:13:34.398Z,2.83
2023-04-13T20:16:03.079Z,3.37
2023-04-13T20:18:31.786Z,2.73
2023-04-13T20:21:01.466Z,3.00
2023-04-13T20:23:31.596Z,3.03
2023-04-13T20:26:00.438Z,3.57
2023-04-13T20:28:29.082Z,3.93
2023-04-13T20:30:57.747Z,3.23
2023-04-13T20:33:26.450Z,2.80
2023-04-13T20:35:55.506Z,2.53
2023-04-13T20:38:24.869Z,1.80
2023-04-13T20:40:57.072Z,2.07
2023-04-13T20:43:25.672Z,2.10
2023-04-13T20:45:57.344Z,2.00
2023-04-13T20:51:01.857Z,2.00
2023-04-13T20:53:31.963Z,2.30
2023-04-13T20:56:02.112Z,2.53
2023-04-13T20:58:32.458Z,3.00
2023-04-13T21:01:01.562Z,3.07
2023-04-13T21:03:32.089Z,2.27
2023-04-13T21:06:01.411Z,2.20
2023-04-13T21:08:30.086Z,2.10
2023-04-13T21:10:58.694Z,2.20
2023-04-13T21:13:30.450Z,2.10
2023-04-13T21:15:59.291Z,2.67
2023-04-13T21:18:27.945Z,2.57
2023-04-13T21:20:56.731Z,2.77
2023-04-13T21:23:25.412Z,2.53
2023-04-13T21:25:54.034Z,2.93
2023-04-13T21:28:22.729Z,4.47
2023-04-13T21:30:52.764Z,3.57
2023-04-13T21:33:21.605Z,2.50
2023-04-13T21:35:50.258Z,2.30
2023-04-13T21:38:18.844Z,2.30
2023-04-13T21:40:47.491Z,2.40
2023-04-13T21:43:16.963Z,2.00
2023-04-13T21:45:45.735Z,1.93
2023-04-13T21:48:16.080Z,2.17
2023-04-13T21:50:44.761Z,2.00
2023-04-13T21:53:13.570Z,2.00
2023-04-13T21:55:42.274Z,2.90
2023-04-13T21:58:11.021Z,3.13
2023-04-13T22:00:39.701Z,3.60
2023-04-13T22:03:08.451Z,3.60
2023-04-13T22:05:38.647Z,3.73
2023-04-13T22:08:07.435Z,3.93
2023-04-13T22:10:36.063Z,3.83
2023-04-13T22:13:04.635Z,3.63
2023-04-13T22:15:33.492Z,4.03
2023-04-13T22:18:02.208Z,4.00
2023-04-13T22:20:30.970Z,4.63
2023-04-13T22:23:00.995Z,4.80
2023-04-13T22:25:29.631Z,4.70
2023-04-13T22:27:58.247Z,4.43
2023-04-13T22:30:26.869Z,4.00
2023-04-13T22:32:55.511Z,3.73
2023-04-13T22:35:24.288Z,3.50
2023-04-13T22:37:53.431Z,4.03
2023-04-13T22:40:23.547Z,4.07
2023-04-13T22:42:55.028Z,4.17
2023-04-13T22:45:24.066Z,3.67
2023-04-13T22:47:54.665Z,4.10
2023-04-13T22:50:23.588Z,4.13
2023-04-13T22:52:53.269Z,3.83
2023-04-13T22:55:23.282Z,3.93
2023-04-13T22:57:51.892Z,5.07
2023-04-13T23:00:21.096Z,4.47
2023-04-13T23:02:50.756Z,4.03
2023-04-13T23:05:19.924Z,3.90
2023-04-13T23:07:50.288Z,3.67
2023-04-13T23:10:19.166Z,3.67
2023-04-13T23:12:49.271Z,4.20
2023-04-13T23:15:18.094Z,4.03
2023-04-13T23:17:46.787Z,4.27
2023-04-13T23:20:15.539Z,4.43
2023-04-13T23:22:44.330Z,4.10
2023-04-13T23:25:13.387Z,3.80
2023-04-13T23:27:42.023Z,4.17
2023-04-13T23:30:14.188Z,4.17
2023-04-13T23:32:42.968Z,3.90
2023-04-13T23:35:11.844Z,3.87
2023-04-13T23:37:42.238Z,4.27
2023-04-13T23:40:11.857Z,3.50
2023-04-13T23:42:40.944Z,3.13
2023-04-13T23:45:12.110Z,3.30
2023-04-13T23:47:40.812Z,3.30
2023-04-13T23:50:10.333Z,3.30
2023-04-13T23:52:38.916Z,3.50
2023-04-13T23:55:08.319Z,3.90
2023-04-13T23:57:37.174Z,4.13
